createdAt,value
2023-01-13T00:00:46.305Z,11.35
2023-01-13T00:01:46.254Z,11.36
2023-01-13T00:02:46.292Z,11.38
2023-01-13T00:03:46.246Z,11.36
2023-01-13T00:04:46.245Z,11.39
2023-01-13T00:05:46.234Z,11.38
2023-01-13T00:06:46.214Z,11.38
2023-01-13T00:07:46.194Z,11.39
2023-01-13T00:08:46.184Z,11.39
2023-01-13T00:09:46.193Z,11.39
2023-01-13T00:10:46.165Z,11.38
2023-01-13T00:11:46.166Z,11.41
2023-01-13T00:12:46.178Z,11.38
2023-01-13T00:13:46.134Z,11.38
2023-01-13T00:14:46.137Z,11.38
2023-01-13T00:15:46.202Z,11.38
2023-01-13T00:16:46.115Z,11.38
2023-01-13T00:17:46.104Z,11.38
2023-01-13T00:18:46.085Z,11.39
2023-01-13T00:19:46.078Z,11.38
2023-01-13T00:20:46.065Z,11.38
2023-01-13T00:21:46.075Z,11.35
2023-01-13T00:22:46.037Z,11.35
2023-01-13T00:23:46.038Z,11.36
2023-01-13T00:24:46.026Z,11.33
2023-01-13T00:25:46.018Z,11.31
2023-01-13T00:26:46.008Z,11.31
2023-01-13T00:27:45.998Z,11.28
2023-01-13T00:28:45.983Z,11.30
2023-01-13T00:29:45.976Z,11.30
2023-01-13T00:30:45.967Z,11.31
2023-01-13T00:31:45.941Z,11.30
2023-01-13T00:32:45.956Z,11.30
2023-01-13T00:33:45.939Z,11.30
2023-01-13T00:34:45.910Z,11.28
2023-01-13T00:35:45.911Z,11.28
2023-01-13T00:36:45.900Z,11.30
2023-01-13T00:37:45.878Z,11.31
2023-01-13T00:38:45.885Z,11.31
2023-01-13T00:39:45.873Z,11.31
2023-01-13T00:40:45.860Z,11.31
2023-01-13T00:41:45.829Z,11.31
2023-01-13T00:42:45.819Z,11.31
2023-01-13T00:43:45.844Z,11.31
2023-01-13T00:44:45.799Z,11.33
2023-01-13T00:45:45.799Z,11.33
2023-01-13T00:46:45.859Z,11.33
2023-01-13T00:47:45.786Z,11.31
2023-01-13T00:48:45.750Z,11.31
2023-01-13T00:49:45.760Z,11.33
2023-01-13T00:50:45.751Z,11.31
2023-01-13T00:51:45.754Z,11.31
2023-01-13T00:52:45.731Z,11.30
2023-01-13T00:53:45.713Z,11.28
2023-01-13T00:54:45.713Z,11.27
2023-01-13T00:55:45.693Z,11.27
2023-01-13T00:56:45.705Z,11.27
2023-01-13T00:57:45.660Z,11.28
2023-01-13T00:58:45.651Z,11.28
2023-01-13T00:59:45.654Z,11.28
2023-01-13T01:00:45.709Z,11.28
2023-01-13T01:01:45.868Z,11.28
2023-01-13T01:02:45.642Z,11.30
2023-01-13T01:03:45.603Z,11.30
2023-01-13T01:04:45.605Z,11.31
2023-01-13T01:05:45.582Z,11.30
2023-01-13T01:06:45.585Z,11.31
2023-01-13T01:07:45.563Z,11.35
2023-01-13T01:08:45.558Z,11.35
2023-01-13T01:09:45.562Z,11.36
2023-01-13T01:10:46.472Z,11.35
2023-01-13T01:11:45.535Z,11.35
2023-01-13T01:12:45.516Z,11.36
2023-01-13T01:13:45.505Z,11.35
2023-01-13T01:14:45.502Z,11.36
2023-01-13T01:15:45.536Z,11.38
2023-01-13T01:16:45.477Z,11.41
2023-01-13T01:17:45.467Z,11.39
2023-01-13T01:18:45.461Z,11.41
2023-01-13T01:19:45.458Z,11.42
2023-01-13T01:20:45.425Z,11.41
2023-01-13T01:21:45.417Z,11.39
2023-01-13T01:22:45.425Z,11.39
2023-01-13T01:23:45.393Z,11.41
2023-01-13T01:24:45.408Z,11.41
2023-01-13T01:25:45.379Z,11.41
2023-01-13T01:26:45.360Z,11.41
2023-01-13T01:27:45.361Z,11.41
2023-01-13T01:28:45.331Z,11.45
2023-01-13T01:29:45.328Z,11.45
2023-01-13T01:30:45.346Z,11.44
2023-01-13T01:31:45.345Z,11.45
2023-01-13T01:32:45.310Z,11.48
2023-01-13T01:33:45.289Z,11.48
2023-01-13T01:34:45.270Z,11.48
2023-01-13T01:35:45.288Z,11.48
2023-01-13T01:36:45.251Z,11.48
2023-01-13T01:37:45.240Z,11.49
2023-01-13T01:38:45.227Z,11.51
2023-01-13T01:39:45.227Z,11.53
2023-01-13T01:40:45.237Z,11.54
2023-01-13T01:41:45.209Z,11.56
2023-01-13T01:42:45.181Z,11.59
2023-01-13T01:43:45.199Z,11.59
2023-01-13T01:44:45.170Z,11.59
2023-01-13T01:45:45.168Z,11.59
2023-01-13T01:46:45.139Z,11.60
2023-01-13T01:47:45.154Z,11.60
2023-01-13T01:48:45.139Z,11.59
2023-01-13T01:49:45.136Z,11.60
2023-01-13T01:50:45.105Z,11.59
2023-01-13T01:51:45.104Z,11.59
2023-01-13T01:52:45.083Z,11.59
2023-01-13T01:53:45.090Z,11.57
2023-01-13T01:54:45.071Z,11.56
2023-01-13T01:55:45.043Z,11.56
2023-01-13T01:56:45.039Z,11.54
2023-01-13T01:57:45.034Z,11.54
2023-01-13T01:58:45.024Z,11.54
2023-01-13T01:59:45.026Z,11.51
2023-01-13T02:00:45.046Z,11.51
2023-01-13T02:01:45.135Z,11.53
2023-01-13T02:02:45.028Z,11.54
2023-01-13T02:03:44.964Z,11.54
2023-01-13T02:04:44.964Z,11.56
2023-01-13T02:05:44.949Z,11.56
2023-01-13T02:06:44.946Z,11.57
2023-01-13T02:07:44.942Z,11.57
2023-01-13T02:08:44.925Z,11.59
2023-01-13T02:09:44.921Z,11.59
2023-01-13T02:10:44.885Z,11.59
2023-01-13T02:11:44.893Z,11.59
2023-01-13T02:12:44.877Z,11.60
2023-01-13T02:13:44.864Z,11.62
2023-01-13T02:14:44.854Z,11.62
2023-01-13T02:15:44.845Z,11.57
2023-01-13T02:16:44.861Z,11.59
2023-01-13T02:17:44.826Z,11.59
2023-01-13T02:18:44.827Z,11.59
2023-01-13T02:19:44.813Z,11.57
2023-01-13T02:20:44.786Z,11.59
2023-01-13T02:21:44.785Z,11.56
2023-01-13T02:22:44.782Z,11.57
2023-01-13T02:23:44.767Z,11.59
2023-01-13T02:24:44.737Z,11.60
2023-01-13T02:25:44.736Z,11.62
2023-01-13T02:26:44.716Z,11.60
2023-01-13T02:27:44.706Z,11.62
2023-01-13T02:28:44.726Z,11.60
2023-01-13T02:29:44.691Z,11.59
2023-01-13T02:30:44.683Z,11.59
2023-01-13T02:31:44.750Z,11.60
2023-01-13T02:32:44.691Z,11.62
2023-01-13T02:33:44.671Z,11.63
2023-01-13T02:34:44.641Z,11.63
2023-01-13T02:35:44.640Z,11.63
2023-01-13T02:36:44.609Z,11.60
2023-01-13T02:37:44.615Z,11.60
2023-01-13T02:38:44.610Z,11.62
2023-01-13T02:39:44.594Z,11.60
2023-01-13T02:40:44.579Z,11.59
2023-01-13T02:41:44.564Z,11.57
2023-01-13T02:42:44.556Z,11.59
2023-01-13T02:43:44.565Z,11.59
2023-01-13T02:44:44.556Z,11.57
2023-01-13T02:45:44.601Z,11.56
2023-01-13T02:46:44.523Z,11.57
2023-01-13T02:47:44.510Z,11.56
2023-01-13T02:48:44.518Z,11.57
2023-01-13T02:49:44.484Z,11.56
2023-01-13T02:50:44.475Z,11.57
2023-01-13T02:51:44.462Z,11.56
2023-01-13T02:52:44.442Z,11.56
2023-01-13T02:53:44.454Z,11.56
2023-01-13T02:54:44.442Z,11.57
2023-01-13T02:55:44.428Z,11.56
2023-01-13T02:56:44.417Z,11.56
2023-01-13T02:57:44.392Z,11.56
2023-01-13T02:58:44.390Z,11.57
2023-01-13T02:59:44.320Z,11.57
2023-01-13T03:00:44.348Z,11.57
2023-01-13T03:01:44.312Z,11.57
2023-01-13T03:02:44.328Z,11.56
2023-01-13T03:03:44.271Z,11.57
2023-01-13T03:04:44.241Z,11.57
2023-01-13T03:05:44.251Z,11.57
2023-01-13T03:06:44.221Z,11.57
2023-01-13T03:07:44.212Z,11.57
2023-01-13T03:08:44.214Z,11.59
2023-01-13T03:09:44.193Z,11.57
2023-01-13T03:10:44.165Z,11.56
2023-01-13T03:11:44.170Z,11.56
2023-01-13T03:12:44.155Z,11.56
2023-01-13T03:13:44.172Z,11.56
2023-01-13T03:14:44.148Z,11.54
2023-01-13T03:15:44.123Z,11.54
2023-01-13T03:16:44.113Z,11.53
2023-01-13T03:17:44.106Z,11.53
2023-01-13T03:18:44.091Z,11.53
2023-01-13T03:19:44.081Z,11.53
2023-01-13T03:20:44.058Z,11.53
2023-01-13T03:21:44.064Z,11.53
2023-01-13T03:22:44.064Z,11.53
2023-01-13T03:23:44.041Z,11.54
2023-01-13T03:24:44.045Z,11.54
2023-01-13T03:25:44.028Z,11.54
2023-01-13T03:26:44.013Z,11.53
2023-01-13T03:27:43.995Z,11.53
2023-01-13T03:28:44.011Z,11.54
2023-01-13T03:29:43.996Z,11.54
2023-01-13T03:30:43.964Z,11.56
2023-01-13T03:31:43.975Z,11.54
2023-01-13T03:32:43.945Z,11.54
2023-01-13T03:33:43.926Z,11.54
2023-01-13T03:34:43.916Z,11.54
2023-01-13T03:35:43.929Z,11.57
2023-01-13T03:36:43.902Z,11.56
2023-01-13T03:37:43.886Z,11.54
2023-01-13T03:38:43.868Z,11.54
2023-01-13T03:39:43.868Z,11.56
2023-01-13T03:40:43.867Z,11.56
2023-01-13T03:41:43.837Z,11.56
2023-01-13T03:42:43.826Z,11.56
2023-01-13T03:43:43.818Z,11.56
2023-01-13T03:44:43.811Z,11.56
2023-01-13T03:45:43.861Z,11.54
2023-01-13T03:46:43.789Z,11.53
2023-01-13T03:47:43.793Z,11.54
2023-01-13T03:48:43.773Z,11.53
2023-01-13T03:49:43.779Z,11.53
2023-01-13T03:50:43.748Z,11.51
2023-01-13T03:51:43.747Z,11.51
2023-01-13T03:52:43.724Z,11.49
2023-01-13T03:53:43.711Z,11.49
2023-01-13T03:54:43.720Z,11.51
2023-01-13T03:55:43.700Z,11.49
2023-01-13T03:56:43.687Z,11.49
2023-01-13T03:57:43.705Z,11.49
2023-01-13T03:58:43.680Z,11.48
2023-01-13T03:59:43.663Z,11.48
2023-01-13T04:00:43.631Z,11.48
2023-01-13T04:01:43.763Z,11.46
2023-01-13T04:02:43.621Z,11.48
2023-01-13T04:03:43.648Z,11.48
2023-01-13T04:04:43.606Z,11.48
2023-01-13T04:05:43.608Z,11.49
2023-01-13T04:06:43.572Z,11.49
2023-01-13T04:07:43.572Z,11.48
2023-01-13T04:08:43.583Z,11.48
2023-01-13T04:09:43.555Z,11.48
2023-01-13T04:10:43.542Z,11.46
2023-01-13T04:11:43.553Z,11.48
2023-01-13T04:12:43.518Z,11.46
2023-01-13T04:13:43.506Z,11.45
2023-01-13T04:14:43.493Z,11.45
2023-01-13T04:15:43.549Z,11.42
2023-01-13T04:16:43.480Z,11.41
2023-01-13T04:17:43.475Z,11.44
2023-01-13T04:18:43.445Z,11.41
2023-01-13T04:19:43.433Z,11.39
2023-01-13T04:20:43.480Z,11.39
2023-01-13T04:21:43.426Z,11.38
2023-01-13T04:22:43.431Z,11.39
2023-01-13T04:23:43.393Z,11.41
2023-01-13T04:24:43.385Z,11.41
2023-01-13T04:25:43.398Z,11.41
2023-01-13T04:26:43.364Z,11.42
2023-01-13T04:27:43.379Z,11.42
2023-01-13T04:28:43.377Z,11.41
2023-01-13T04:29:43.337Z,11.42
2023-01-13T04:30:43.379Z,11.44
2023-01-13T04:31:43.316Z,11.45
2023-01-13T04:32:43.324Z,11.46
2023-01-13T04:33:43.285Z,11.48
2023-01-13T04:34:43.274Z,11.48
2023-01-13T04:35:43.272Z,11.49
2023-01-13T04:36:43.271Z,11.48
2023-01-13T04:37:43.264Z,11.49
2023-01-13T04:38:43.253Z,11.51
2023-01-13T04:39:43.256Z,11.53
2023-01-13T04:40:43.216Z,11.54
2023-01-13T04:41:43.227Z,11.56
2023-01-13T04:42:43.201Z,11.57
2023-01-13T04:43:43.191Z,11.56
2023-01-13T04:44:43.169Z,11.56
2023-01-13T04:45:43.172Z,11.54
2023-01-13T04:46:43.169Z,11.56
2023-01-13T04:47:43.149Z,11.54
2023-01-13T04:48:43.131Z,11.54
2023-01-13T04:49:43.128Z,11.56
2023-01-13T04:50:43.116Z,11.54
2023-01-13T04:51:43.101Z,11.57
2023-01-13T04:52:43.099Z,11.57
2023-01-13T04:53:43.104Z,11.56
2023-01-13T04:54:43.091Z,11.57
2023-01-13T04:55:43.066Z,11.57
2023-01-13T04:56:43.055Z,11.56
2023-01-13T04:57:43.043Z,11.56
2023-01-13T04:58:43.030Z,11.57
2023-01-13T04:59:43.035Z,11.59
2023-01-13T05:00:43.023Z,11.62
2023-01-13T05:01:43.090Z,11.57
2023-01-13T05:02:42.993Z,11.59
2023-01-13T05:03:42.975Z,11.59
2023-01-13T05:04:42.996Z,11.59
2023-01-13T05:05:42.959Z,11.60
2023-01-13T05:06:42.952Z,11.59
2023-01-13T05:07:42.951Z,11.62
2023-01-13T05:08:42.912Z,11.62
2023-01-13T05:09:42.905Z,11.60
2023-01-13T05:10:42.904Z,11.60
2023-01-13T05:11:42.895Z,11.60
2023-01-13T05:12:42.897Z,11.62
2023-01-13T05:13:42.870Z,11.60
2023-01-13T05:14:42.842Z,11.62
2023-01-13T05:15:42.912Z,11.63
2023-01-13T05:16:42.849Z,11.62
2023-01-13T05:17:42.823Z,11.62
2023-01-13T05:18:42.805Z,11.62
2023-01-13T05:19:42.814Z,11.64
2023-01-13T05:20:42.804Z,11.64
2023-01-13T05:21:42.794Z,11.64
2023-01-13T05:22:42.785Z,11.64
2023-01-13T05:23:42.774Z,11.64
2023-01-13T05:24:42.758Z,11.67
2023-01-13T05:25:44.284Z,11.66
2023-01-13T05:26:42.763Z,11.66
2023-01-13T05:27:42.727Z,11.66
2023-01-13T05:28:42.716Z,11.66
2023-01-13T05:29:42.719Z,11.66
2023-01-13T05:30:42.687Z,11.66
2023-01-13T05:31:42.689Z,11.67
2023-01-13T05:32:42.661Z,11.67
2023-01-13T05:33:42.679Z,11.67
2023-01-13T05:34:42.648Z,11.67
2023-01-13T05:35:42.653Z,11.67
2023-01-13T05:36:42.644Z,11.67
2023-01-13T05:37:42.615Z,11.69
2023-01-13T05:38:42.607Z,11.69
2023-01-13T05:39:42.598Z,11.69
2023-01-13T05:40:42.578Z,11.67
2023-01-13T05:41:42.576Z,11.67
2023-01-13T05:42:42.568Z,11.67
2023-01-13T05:43:42.557Z,11.66
2023-01-13T05:44:42.540Z,11.67
2023-01-13T05:45:42.759Z,11.67
2023-01-13T05:46:42.584Z,11.67
2023-01-13T05:47:42.516Z,11.66
2023-01-13T05:48:42.517Z,11.66
2023-01-13T05:49:42.488Z,11.67
2023-01-13T05:50:42.472Z,11.66
2023-01-13T05:51:42.463Z,11.66
2023-01-13T05:52:42.458Z,11.66
2023-01-13T05:53:43.221Z,11.66
2023-01-13T05:54:42.427Z,11.64
2023-01-13T05:55:42.446Z,11.64
2023-01-13T05:56:42.461Z,11.64
2023-01-13T05:57:42.405Z,11.64
2023-01-13T05:58:42.392Z,11.63
2023-01-13T05:59:42.379Z,11.60
2023-01-13T06:00:42.377Z,11.60
2023-01-13T06:01:42.351Z,11.59
2023-01-13T06:02:42.404Z,11.57
2023-01-13T06:03:42.333Z,11.56
2023-01-13T06:04:42.343Z,11.54
2023-01-13T06:05:42.323Z,11.53
2023-01-13T06:06:42.303Z,11.54
2023-01-13T06:07:42.303Z,11.54
2023-01-13T06:08:42.293Z,11.53
2023-01-13T06:09:42.281Z,11.53
2023-01-13T06:10:42.362Z,11.54
2023-01-13T06:11:42.242Z,11.54
2023-01-13T06:12:42.255Z,11.53
2023-01-13T06:13:42.236Z,11.54
2023-01-13T06:14:43.045Z,11.57
2023-01-13T06:15:42.225Z,11.54
2023-01-13T06:16:42.206Z,11.56
2023-01-13T06:17:42.184Z,11.54
2023-01-13T06:18:42.175Z,11.57
2023-01-13T06:19:42.196Z,11.56
2023-01-13T06:20:42.163Z,11.57
2023-01-13T06:21:42.148Z,11.56
2023-01-13T06:22:42.136Z,11.57
2023-01-13T06:23:42.146Z,11.56
2023-01-13T06:24:42.135Z,11.56
2023-01-13T06:25:42.114Z,11.57
2023-01-13T06:26:42.118Z,11.57
2023-01-13T06:27:42.085Z,11.59
2023-01-13T06:28:42.063Z,11.60
2023-01-13T06:29:42.057Z,11.60
2023-01-13T06:30:42.529Z,11.60
2023-01-13T06:31:42.100Z,11.62
2023-01-13T06:32:42.027Z,11.62
2023-01-13T06:33:42.037Z,11.63
2023-01-13T06:34:42.033Z,11.63
2023-01-13T06:35:42.012Z,11.63
2023-01-13T06:36:41.987Z,11.64
2023-01-13T06:37:41.979Z,11.63
2023-01-13T06:38:41.961Z,11.63
2023-01-13T06:39:42.669Z,11.66
2023-01-13T06:40:42.289Z,11.63
2023-01-13T06:41:42.945Z,11.66
2023-01-13T06:42:41.939Z,11.64
2023-01-13T06:43:42.664Z,11.62
2023-01-13T06:44:41.919Z,11.62
2023-01-13T06:45:42.890Z,11.60
2023-01-13T06:46:42.062Z,11.59
2023-01-13T06:47:42.613Z,11.59
2023-01-13T06:48:41.876Z,11.57
2023-01-13T06:49:41.908Z,11.56
2023-01-13T06:50:41.871Z,11.56
2023-01-13T06:51:41.960Z,11.53
2023-01-13T06:52:41.835Z,11.54
2023-01-13T06:53:41.805Z,11.53
2023-01-13T06:54:41.822Z,11.53
2023-01-13T06:55:41.824Z,11.53
2023-01-13T06:56:41.781Z,11.53
2023-01-13T06:57:41.772Z,11.51
2023-01-13T06:58:41.762Z,11.49
2023-01-13T06:59:41.741Z,11.48
2023-01-13T07:00:41.796Z,11.48
2023-01-13T07:01:42.044Z,11.49
2023-01-13T07:02:41.750Z,11.49
2023-01-13T07:03:41.724Z,11.51
2023-01-13T07:04:41.708Z,11.53
2023-01-13T07:05:41.692Z,11.53
2023-01-13T07:06:41.673Z,11.53
2023-01-13T07:07:41.667Z,11.51
2023-01-13T07:08:41.684Z,11.49
2023-01-13T07:09:41.633Z,11.49
2023-01-13T07:10:41.621Z,11.49
2023-01-13T07:11:41.634Z,11.49
2023-01-13T07:12:41.614Z,11.49
2023-01-13T07:13:41.666Z,11.49
2023-01-13T07:14:41.584Z,11.46
2023-01-13T07:15:41.583Z,11.48
2023-01-13T07:16:41.627Z,11.46
2023-01-13T07:17:41.558Z,11.49
2023-01-13T07:18:41.551Z,11.49
2023-01-13T07:19:41.543Z,11.48
2023-01-13T07:20:41.518Z,11.49
2023-01-13T07:21:41.518Z,11.51
2023-01-13T07:22:41.506Z,11.48
2023-01-13T07:23:41.499Z,11.48
2023-01-13T07:24:41.480Z,11.46
2023-01-13T07:25:41.476Z,11.46
2023-01-13T07:26:41.472Z,11.48
2023-01-13T07:27:41.455Z,11.46
2023-01-13T07:28:41.458Z,11.46
2023-01-13T07:29:41.426Z,11.46
2023-01-13T07:30:41.426Z,11.48
2023-01-13T07:31:41.468Z,11.49
2023-01-13T07:32:41.402Z,11.53
2023-01-13T07:33:41.388Z,11.53
2023-01-13T07:34:41.387Z,11.53
2023-01-13T07:35:41.389Z,11.53
2023-01-13T07:36:41.358Z,11.53
2023-01-13T07:37:41.341Z,11.53
2023-01-13T07:38:41.331Z,11.56
2023-01-13T07:39:41.320Z,11.54
2023-01-13T07:40:41.321Z,11.54
2023-01-13T07:41:41.307Z,11.54
2023-01-13T07:42:41.298Z,11.56
2023-01-13T07:43:41.311Z,11.56
2023-01-13T07:44:41.284Z,11.57
2023-01-13T07:45:41.289Z,11.57
2023-01-13T07:46:41.266Z,11.59
2023-01-13T07:47:41.219Z,11.59
2023-01-13T07:48:41.234Z,11.57
2023-01-13T07:49:41.218Z,11.59
2023-01-13T07:50:43.997Z,11.60
2023-01-13T07:51:41.200Z,11.60
2023-01-13T07:52:41.190Z,11.62
2023-01-13T07:53:41.175Z,11.63
2023-01-13T07:54:41.439Z,11.63
2023-01-13T07:55:41.153Z,11.64
2023-01-13T07:56:41.143Z,11.66
2023-01-13T07:57:41.130Z,11.69
2023-01-13T07:58:41.132Z,11.70
2023-01-13T07:59:41.122Z,11.70
2023-01-13T08:00:41.103Z,11.72
2023-01-13T08:01:41.268Z,11.72
2023-01-13T08:02:41.142Z,11.72
2023-01-13T08:03:41.074Z,11.75
2023-01-13T08:04:41.066Z,11.74
2023-01-13T08:05:41.042Z,11.75
2023-01-13T08:06:41.040Z,11.75
2023-01-13T08:07:41.075Z,11.77
2023-01-13T08:08:41.042Z,11.77
2023-01-13T08:09:41.028Z,11.79
2023-01-13T08:10:40.996Z,11.78
2023-01-13T08:11:40.991Z,11.81
2023-01-13T08:12:40.996Z,11.82
2023-01-13T08:13:41.964Z,11.84
2023-01-13T08:14:40.949Z,11.84
2023-01-13T08:15:40.926Z,11.85
2023-01-13T08:16:40.954Z,11.87
2023-01-13T08:17:40.955Z,11.87
2023-01-13T08:18:40.903Z,11.87
2023-01-13T08:19:40.895Z,11.87
2023-01-13T08:20:40.888Z,11.88
2023-01-13T08:21:40.890Z,11.88
2023-01-13T08:22:40.876Z,11.90
2023-01-13T08:23:40.865Z,11.93
2023-01-13T08:24:40.870Z,11.96
2023-01-13T08:25:40.851Z,11.97
2023-01-13T08:26:40.826Z,12.00
2023-01-13T08:27:40.834Z,12.03
2023-01-13T08:28:40.829Z,12.04
2023-01-13T08:29:40.804Z,12.04
2023-01-13T08:30:40.838Z,12.03
2023-01-13T08:31:40.818Z,12.00
2023-01-13T08:32:41.125Z,12.00
2023-01-13T08:33:40.744Z,11.98
2023-01-13T08:34:41.467Z,11.93
2023-01-13T08:35:40.748Z,11.84
2023-01-13T08:36:40.729Z,11.79
2023-01-13T08:37:40.698Z,11.75
2023-01-13T08:38:40.703Z,11.72
2023-01-13T08:39:40.679Z,11.70
2023-01-13T08:40:40.681Z,11.66
2023-01-13T08:41:40.669Z,11.63
2023-01-13T08:42:40.652Z,11.60
2023-01-13T08:43:41.118Z,11.60
2023-01-13T08:44:40.641Z,11.59
2023-01-13T08:45:40.620Z,11.57
2023-01-13T08:46:40.601Z,11.54
2023-01-13T08:47:40.600Z,11.54
2023-01-13T08:48:40.587Z,11.51
2023-01-13T08:49:40.581Z,11.48
2023-01-13T08:50:40.562Z,11.44
2023-01-13T08:51:40.563Z,11.42
2023-01-13T08:52:40.548Z,11.39
2023-01-13T08:53:40.532Z,11.36
2023-01-13T08:54:40.534Z,11.35
2023-01-13T08:55:40.502Z,11.31
2023-01-13T08:56:40.548Z,11.30
2023-01-13T08:57:40.494Z,11.27
2023-01-13T08:58:40.493Z,11.24
2023-01-13T08:59:40.482Z,11.24
2023-01-13T09:00:40.460Z,11.21
2023-01-13T09:01:40.523Z,11.16
2023-01-13T09:02:40.433Z,11.13
2023-01-13T09:03:40.425Z,11.09
2023-01-13T09:04:40.552Z,11.06
2023-01-13T09:05:40.404Z,11.01
2023-01-13T09:06:40.504Z,10.94
2023-01-13T09:07:40.404Z,10.91
2023-01-13T09:08:40.385Z,10.88
2023-01-13T09:09:40.371Z,10.76
2023-01-13T09:10:40.418Z,10.69
2023-01-13T09:11:40.368Z,10.63
2023-01-13T09:12:40.334Z,10.58
2023-01-13T09:13:40.336Z,10.51
2023-01-13T09:14:40.349Z,10.43
2023-01-13T09:15:40.486Z,10.38
2023-01-13T09:16:40.296Z,10.34
2023-01-13T09:17:40.290Z,10.28
2023-01-13T09:18:40.277Z,10.25
2023-01-13T09:19:40.288Z,10.22
2023-01-13T09:20:40.244Z,10.18
2023-01-13T09:21:40.225Z,10.13
2023-01-13T09:22:40.290Z,10.10
2023-01-13T09:23:40.206Z,10.07
2023-01-13T09:24:40.208Z,10.04
2023-01-13T09:25:40.210Z,10.04
2023-01-13T09:26:40.291Z,10.04
2023-01-13T09:27:40.180Z,10.04
2023-01-13T09:28:40.166Z,10.02
2023-01-13T09:29:40.137Z,10.06
2023-01-13T09:30:40.178Z,10.06
2023-01-13T09:31:41.329Z,10.06
2023-01-13T09:32:41.070Z,10.09
2023-01-13T09:33:40.107Z,10.10
2023-01-13T09:34:40.101Z,10.13
2023-01-13T09:35:40.101Z,10.16
2023-01-13T09:36:40.077Z,10.18
2023-01-13T09:37:40.093Z,10.20
2023-01-13T09:38:40.061Z,10.24
2023-01-13T09:39:40.047Z,10.25
2023-01-13T09:40:40.037Z,10.26
2023-01-13T09:41:40.010Z,10.29
2023-01-13T09:42:40.006Z,10.32
2023-01-13T09:43:39.993Z,10.38
2023-01-13T09:44:40.015Z,10.43
2023-01-13T09:45:39.979Z,10.44
2023-01-13T09:46:40.041Z,10.49
2023-01-13T09:47:39.950Z,10.49
2023-01-13T09:48:39.943Z,10.52
2023-01-13T09:49:39.951Z,10.55
2023-01-13T09:50:39.922Z,10.58
2023-01-13T09:51:39.979Z,10.62
2023-01-13T09:52:39.900Z,10.63
2023-01-13T09:53:39.901Z,10.65
2023-01-13T09:54:39.902Z,10.66
2023-01-13T09:55:39.870Z,10.66
2023-01-13T09:56:39.864Z,10.65
2023-01-13T09:57:39.850Z,10.69
2023-01-13T09:58:39.852Z,10.68
2023-01-13T09:59:39.842Z,10.68
2023-01-13T10:00:39.829Z,10.69
2023-01-13T10:01:39.823Z,10.69
2023-01-13T10:02:39.809Z,10.69
2023-01-13T10:03:39.864Z,10.70
2023-01-13T10:04:39.811Z,10.70
2023-01-13T10:05:39.777Z,10.70
2023-01-13T10:06:39.763Z,10.70
2023-01-13T10:07:39.743Z,10.69
2023-01-13T10:08:39.751Z,10.68
2023-01-13T10:09:39.749Z,10.68
2023-01-13T10:10:39.703Z,10.68
2023-01-13T10:11:39.705Z,10.66
2023-01-13T10:12:39.704Z,10.68
2023-01-13T10:13:39.678Z,10.68
2023-01-13T10:14:39.680Z,10.68
2023-01-13T10:15:39.686Z,10.70
2023-01-13T10:16:39.645Z,10.72
2023-01-13T10:17:39.652Z,10.75
2023-01-13T10:18:39.626Z,10.75
2023-01-13T10:19:39.606Z,10.73
2023-01-13T10:20:39.620Z,10.72
2023-01-13T10:21:39.614Z,10.70
2023-01-13T10:22:39.612Z,10.68
2023-01-13T10:23:39.578Z,10.66
2023-01-13T10:24:39.578Z,10.63
2023-01-13T10:25:39.554Z,10.63
2023-01-13T10:26:39.577Z,10.63
2023-01-13T10:27:39.550Z,10.65
2023-01-13T10:28:39.517Z,10.66
2023-01-13T10:29:39.508Z,10.66
2023-01-13T10:30:39.508Z,10.66
2023-01-13T10:31:39.561Z,10.65
2023-01-13T10:32:39.491Z,10.62
2023-01-13T10:33:39.487Z,10.57
2023-01-13T10:34:39.448Z,10.57
2023-01-13T10:35:39.452Z,10.58
2023-01-13T10:36:39.458Z,10.57
2023-01-13T10:37:39.428Z,10.58
2023-01-13T10:38:40.101Z,10.55
2023-01-13T10:39:39.443Z,10.54
2023-01-13T10:40:40.396Z,10.49
2023-01-13T10:41:39.388Z,10.47
2023-01-13T10:42:39.452Z,10.46
2023-01-13T10:43:39.392Z,10.44
2023-01-13T10:44:40.084Z,10.47
2023-01-13T10:45:39.348Z,10.51
2023-01-13T10:46:39.936Z,10.58
2023-01-13T10:47:39.329Z,10.63
2023-01-13T10:48:40.001Z,10.62
2023-01-13T10:49:39.318Z,10.60
2023-01-13T10:50:39.351Z,10.62
2023-01-13T10:51:39.271Z,10.55
2023-01-13T10:52:39.280Z,10.51
2023-01-13T10:53:39.240Z,10.44
2023-01-13T10:54:39.262Z,10.43
2023-01-13T10:55:39.230Z,10.43
2023-01-13T10:56:39.215Z,10.42
2023-01-13T10:57:39.219Z,10.39
2023-01-13T10:58:39.234Z,10.31
2023-01-13T10:59:39.201Z,10.17
2023-01-13T11:00:39.198Z,10.11
2023-01-13T11:01:39.216Z,10.07
2023-01-13T11:02:39.209Z,10.04
2023-01-13T11:03:39.149Z,9.98
2023-01-13T11:04:39.191Z,9.91
2023-01-13T11:05:39.140Z,9.88
2023-01-13T11:06:39.131Z,9.81
2023-01-13T11:07:39.120Z,9.77
2023-01-13T11:08:39.099Z,9.73
2023-01-13T11:09:39.088Z,9.70
2023-01-13T11:10:39.085Z,9.67
2023-01-13T11:11:39.077Z,9.65
2023-01-13T11:12:39.066Z,9.60
2023-01-13T11:13:39.036Z,9.58
2023-01-13T11:14:39.023Z,9.56
2023-01-13T11:15:39.034Z,9.55
2023-01-13T11:16:42.649Z,9.55
2023-01-13T11:17:39.986Z,9.56
2023-01-13T11:18:38.984Z,9.56
2023-01-13T11:19:38.974Z,9.55
2023-01-13T11:20:39.017Z,9.58
2023-01-13T11:21:38.965Z,9.59
2023-01-13T11:22:38.970Z,9.56
2023-01-13T11:23:38.941Z,9.58
2023-01-13T11:24:38.925Z,9.58
2023-01-13T11:25:38.918Z,9.59
2023-01-13T11:26:38.917Z,9.59
2023-01-13T11:27:38.920Z,9.60
2023-01-13T11:28:38.880Z,9.58
2023-01-13T11:29:38.869Z,9.59
2023-01-13T11:30:38.880Z,9.60
2023-01-13T11:31:38.876Z,9.60
2023-01-13T11:32:38.847Z,9.60
2023-01-13T11:33:38.839Z,9.60
2023-01-13T11:34:38.817Z,9.60
2023-01-13T11:35:38.798Z,9.62
2023-01-13T11:36:38.822Z,9.63
2023-01-13T11:37:38.778Z,9.63
2023-01-13T11:38:38.774Z,9.65
2023-01-13T11:39:38.769Z,9.65
2023-01-13T11:40:38.769Z,9.65
2023-01-13T11:41:38.757Z,9.67
2023-01-13T11:42:38.788Z,9.67
2023-01-13T11:43:39.408Z,9.63
2023-01-13T11:44:38.742Z,9.63
2023-01-13T11:45:38.713Z,9.67
2023-01-13T11:46:38.726Z,9.68
2023-01-13T11:47:38.675Z,9.70
2023-01-13T11:48:38.670Z,9.73
2023-01-13T11:49:38.682Z,9.74
2023-01-13T11:50:38.641Z,9.81
2023-01-13T11:51:39.419Z,9.81
2023-01-13T11:52:38.656Z,9.85
2023-01-13T11:53:38.735Z,9.92
2023-01-13T11:54:38.653Z,9.96
2023-01-13T11:55:39.588Z,10.01
2023-01-13T11:56:38.620Z,10.22
2023-01-13T11:57:39.583Z,10.69
2023-01-13T11:58:49.708Z,10.99
2023-01-13T11:59:40.263Z,12.18
2023-01-13T12:00:38.549Z,12.67
2023-01-13T12:01:39.452Z,13.63
2023-01-13T12:02:38.558Z,15.41
2023-01-13T12:03:38.628Z,16.16
2023-01-13T12:04:38.494Z,15.34
2023-01-13T12:05:38.525Z,16.37
2023-01-13T12:06:39.491Z,17.32
2023-01-13T12:07:38.483Z,17.94
2023-01-13T12:08:38.462Z,18.01
2023-01-13T12:09:38.507Z,17.22
2023-01-13T12:10:38.457Z,18.35
2023-01-13T12:11:38.441Z,17.54
2023-01-13T12:12:39.133Z,17.27
2023-01-13T12:13:38.439Z,16.81
2023-01-13T12:14:38.394Z,18.66
2023-01-13T12:15:38.384Z,19.40
2023-01-13T12:16:38.387Z,19.71
2023-01-13T12:17:38.388Z,19.72
2023-01-13T12:18:38.355Z,19.65
2023-01-13T12:19:38.346Z,18.74
2023-01-13T12:20:38.825Z,17.91
2023-01-13T12:21:38.330Z,18.64
2023-01-13T12:22:38.323Z,19.23
2023-01-13T12:23:38.304Z,20.02
2023-01-13T12:24:38.318Z,21.05
2023-01-13T12:25:38.276Z,21.19
2023-01-13T12:26:38.275Z,21.74
2023-01-13T12:27:38.258Z,21.98
2023-01-13T12:28:38.322Z,21.56
2023-01-13T12:29:38.246Z,20.66
2023-01-13T12:30:38.219Z,19.85
2023-01-13T12:31:38.489Z,21.05
2023-01-13T12:32:38.263Z,21.26
2023-01-13T12:33:38.250Z,21.71
2023-01-13T12:34:38.183Z,20.26
2023-01-13T12:35:38.183Z,20.44
2023-01-13T12:36:38.200Z,20.57
2023-01-13T12:37:38.162Z,18.17
2023-01-13T12:38:38.140Z,16.75
2023-01-13T12:39:38.122Z,16.01
2023-01-13T12:40:38.110Z,15.46
2023-01-13T12:41:38.103Z,14.54
2023-01-13T12:42:38.079Z,13.86
2023-01-13T12:43:38.083Z,13.35
2023-01-13T12:44:38.384Z,12.99
2023-01-13T12:45:38.075Z,12.74
2023-01-13T12:46:38.051Z,12.55
2023-01-13T12:47:38.055Z,12.44
2023-01-13T12:48:38.021Z,13.16
2023-01-13T12:49:38.030Z,14.90
2023-01-13T12:50:38.043Z,15.44
2023-01-13T12:51:38.063Z,16.22
2023-01-13T12:52:37.973Z,16.92
2023-01-13T12:53:37.985Z,17.45
2023-01-13T12:54:37.974Z,17.91